Time;durP1;ratioP1;P1;durP2;ratioP2;P2;SDS_P1;SDS_P2;PMS_P1;PMS_P2;Temp;Humidity;BMP_temperature;BMP_pressure;BME280_temperature;BME280_humidity;BME280_pressure;Samples;Min_cycle;Max_cycle;Signal;HPM_P1;HPM_P2
2021/03/28 00:02:45;;;;;;;8.20;5.20;;;8.50;79.70;;;;;;5070966;28;20430;-71
2021/03/28 00:05:37;;;;;;;6.60;5.40;;;8.50;80.20;;;;;;5049802;28;20509;-71
2021/03/28 00:08:26;;;;;;;8.03;5.70;;;8.60;79.50;;;;;;5064687;28;20466;-71
2021/03/28 00:11:10;;;;;;;9.10;5.90;;;8.50;77.50;;;;;;5072375;28;20465;-71
2021/03/28 00:13:48;;;;;;;11.83;6.00;;;8.50;76.50;;;;;;5072887;28;20491;-71
2021/03/28 00:16:15;;;;;;;8.87;5.70;;;8.50;77.30;;;;;;5072354;28;20365;-71
2021/03/28 00:19:02;;;;;;;6.03;4.83;;;8.60;77.60;;;;;;5072872;28;20450;-71
2021/03/28 00:21:35;;;;;;;11.70;5.30;;;8.70;78.20;;;;;;5072788;28;20441;-71
2021/03/28 00:24:19;;;;;;;8.50;5.10;;;8.70;77.50;;;;;;5071769;28;20392;-71
2021/03/28 00:27:06;;;;;;;7.77;5.47;;;8.70;78.90;;;;;;5072342;28;20893;-71
2021/03/28 00:29:47;;;;;;;9.00;5.27;;;8.70;78.70;;;;;;5072322;28;20445;-71
2021/03/28 00:32:20;;;;;;;7.20;6.13;;;8.70;79.40;;;;;;5071427;28;20411;-71
2021/03/28 00:34:51;;;;;;;6.37;4.90;;;8.80;78.80;;;;;;5072050;28;20952;-71
2021/03/28 00:37:26;;;;;;;8.43;5.80;;;8.80;79.00;;;;;;5071654;28;20654;-71
2021/03/28 00:40:10;;;;;;;5.50;5.00;;;8.80;79.30;;;;;;5072325;28;20465;-71
2021/03/28 00:42:50;;;;;;;6.23;5.00;;;8.80;79.70;;;;;;5070929;28;20417;-71
2021/03/28 00:45:33;;;;;;;9.47;4.70;;;8.90;79.60;;;;;;5071747;28;20461;-71
2021/03/28 00:48:09;;;;;;;5.60;5.07;;;9.10;80.00;;;;;;5070354;28;20414;-72
2021/03/28 00:50:49;;;;;;;8.57;5.37;;;9.10;79.80;;;;;;5072151;28;20443;-72
2021/03/28 00:53:32;;;;;;;7.93;5.60;;;9.20;79.20;;;;;;5071232;28;20422;-71
2021/03/28 00:56:06;;;;;;;9.70;5.43;;;9.30;78.70;;;;;;5071775;28;20875;-72
2021/03/28 00:58:50;;;;;;;7.27;4.83;;;9.40;78.50;;;;;;5051147;28;20445;-71
2021/03/28 01:01:37;;;;;;;5.30;4.80;;;9.50;78.30;;;;;;5070165;28;20502;-71
2021/03/28 01:04:34;;;;;;;10.50;5.23;;;9.50;78.30;;;;;;5071358;28;20408;-71
2021/03/28 01:07:23;;;;;;;7.03;4.57;;;9.60;79.00;;;;;;5071376;28;20403;-72
2021/03/28 01:10:26;;;;;;;11.13;5.27;;;9.60;78.90;;;;;;5070608;28;20539;-71
2021/03/28 01:13:30;;;;;;;6.17;4.83;;;9.60;78.80;;;;;;5072109;28;20746;-71
2021/03/28 01:16:20;;;;;;;6.70;5.00;;;9.60;78.40;;;;;;5043246;28;20417;-71
2021/03/28 01:19:05;;;;;;;6.80;4.93;;;9.60;78.40;;;;;;5066618;28;20839;-71
2021/03/28 01:22:09;;;;;;;7.80;5.67;;;9.60;78.80;;;;;;5071877;28;20500;-71
2021/03/28 01:25:22;;;;;;;8.23;5.50;;;9.60;78.60;;;;;;5071764;28;20407;-71
2021/03/28 01:27:59;;;;;;;6.50;4.23;;;9.70;78.80;;;;;;5052633;28;20786;-71
2021/03/28 01:30:39;;;;;;;7.80;4.80;;;9.70;79.00;;;;;;5071656;28;20556;-71
2021/03/28 01:33:17;;;;;;;6.50;4.97;;;9.70;79.00;;;;;;5071073;28;20884;-71
2021/03/28 01:36:09;;;;;;;6.07;4.57;;;9.70;79.20;;;;;;5071770;28;20430;-71
2021/03/28 01:38:37;;;;;;;4.63;4.00;;;9.60;79.40;;;;;;5072152;28;20777;-71
2021/03/28 01:41:12;;;;;;;7.20;4.50;;;9.60;79.10;;;;;;5071044;28;20757;-72
2021/03/28 01:43:49;;;;;;;7.37;4.53;;;9.60;79.10;;;;;;5071592;28;20437;-71
2021/03/28 01:47:02;;;;;;;8.27;4.33;;;9.60;78.80;;;;;;5069722;28;20751;-71
2021/03/28 01:49:46;;;;;;;8.27;4.80;;;9.70;78.60;;;;;;5071159;28;20808;-71
2021/03/28 01:52:12;;;;;;;8.77;5.00;;;9.70;78.90;;;;;;5071022;28;20433;-71
2021/03/28 01:54:43;;;;;;;9.87;4.47;;;9.70;78.70;;;;;;5071859;28;20424;-71
2021/03/28 01:57:34;;;;;;;8.17;5.07;;;9.80;78.60;;;;;;5070750;28;20178;-71
2021/03/28 02:00:05;;;;;;;7.30;4.23;;;9.80;78.60;;;;;;5071447;28;20499;-72
2021/03/28 02:02:37;;;;;;;7.77;4.10;;;9.80;78.50;;;;;;5072065;28;20476;-71
2021/03/28 02:05:15;;;;;;;6.63;4.67;;;9.80;78.40;;;;;;5070667;28;20484;-72
2021/03/28 02:08:11;;;;;;;7.97;5.07;;;9.70;78.50;;;;;;5070614;28;20395;-71
2021/03/28 02:11:01;;;;;;;11.67;4.77;;;9.70;79.00;;;;;;5071820;28;20451;-71
2021/03/28 02:13:36;;;;;;;8.20;4.60;;;9.70;79.00;;;;;;5071334;28;20454;-71
2021/03/28 02:16:17;;;;;;;5.93;4.17;;;9.80;79.00;;;;;;5070990;28;20381;-72
2021/03/28 02:18:52;;;;;;;7.33;4.40;;;9.80;78.90;;;;;;5071933;28;20794;-71
2021/03/28 02:21:48;;;;;;;7.50;4.70;;;9.80;79.30;;;;;;5070875;28;20384;-71
2021/03/28 02:24:44;;;;;;;7.20;4.57;;;9.80;79.30;;;;;;5069581;28;20747;-71
2021/03/28 02:27:37;;;;;;;5.73;4.43;;;9.90;79.60;;;;;;5072269;28;20395;-71
2021/03/28 02:30:33;;;;;;;7.03;4.40;;;9.90;79.10;;;;;;5074343;28;20565;-72
2021/03/28 02:33:13;;;;;;;4.83;4.23;;;9.90;80.00;;;;;;5075116;28;20792;-71
2021/03/28 02:35:54;;;;;;;4.53;4.13;;;9.90;79.90;;;;;;5075258;28;20447;-70
2021/03/28 02:38:31;;;;;;;7.27;4.23;;;9.90;79.90;;;;;;5074085;28;20419;-70
2021/03/28 02:41:16;;;;;;;9.23;4.90;;;9.90;79.70;;;;;;5075296;28;20378;-70
2021/03/28 02:43:50;;;;;;;8.00;4.10;;;9.90;79.40;;;;;;5074602;28;20420;-71
2021/03/28 02:46:25;;;;;;;8.77;4.40;;;10.00;79.00;;;;;;5074100;28;20403;-71
2021/03/28 02:49:21;;;;;;;5.80;4.60;;;10.00;78.80;;;;;;5074327;28;20447;-70
2021/03/28 02:52:11;;;;;;;7.20;4.43;;;9.90;80.90;;;;;;5074807;28;20397;-70
2021/03/28 02:54:46;;;;;;;5.70;4.70;;;10.00;80.00;;;;;;5074720;28;20433;-70
2021/03/28 02:57:29;;;;;;;6.47;5.17;;;9.90;80.20;;;;;;5073588;28;20471;-71
2021/03/28 03:00:13;;;;;;;5.60;5.10;;;9.90;80.20;;;;;;5074577;28;20431;-70
2021/03/28 03:03:17;;;;;;;4.83;3.93;;;9.90;81.20;;;;;;5074427;28;20394;-70
2021/03/28 03:06:00;;;;;;;9.07;4.60;;;10.00;80.30;;;;;;5074113;28;20416;-70
2021/03/28 03:09:04;;;;;;;8.20;4.53;;;10.00;79.30;;;;;;5073404;28;20918;-71
2021/03/28 03:11:50;;;;;;;6.97;3.70;;;10.00;79.60;;;;;;5071702;28;20438;-71
2021/03/28 03:14:42;;;;;;;4.93;4.40;;;10.00;79.50;;;;;;5073495;28;20800;-71
2021/03/28 03:17:29;;;;;;;7.63;4.47;;;10.00;79.20;;;;;;5073407;28;20407;-71
2021/03/28 03:20:14;;;;;;;7.87;4.10;;;10.00;79.80;;;;;;5074120;28;20798;-70
2021/03/28 03:23:22;;;;;;;8.37;4.50;;;10.00;80.10;;;;;;5074016;28;20418;-71
2021/03/28 03:26:22;;;;;;;6.27;4.43;;;9.90;81.10;;;;;;5074027;28;20387;-70
2021/03/28 03:29:16;;;;;;;7.50;3.80;;;9.90;81.10;;;;;;5072752;28;20472;-70
2021/03/28 03:32:11;;;;;;;10.77;4.27;;;9.90;80.90;;;;;;5073678;28;20412;-70
2021/03/28 03:35:01;;;;;;;3.47;3.17;;;9.90;80.90;;;;;;5074074;28;20424;-71
2021/03/28 03:37:51;;;;;;;5.97;3.83;;;9.90;80.80;;;;;;5072579;28;20498;-70
2021/03/28 03:40:38;;;;;;;5.33;4.13;;;10.00;79.30;;;;;;5072598;28;20399;-70
2021/03/28 03:43:33;;;;;;;5.37;3.33;;;10.00;79.60;;;;;;5073616;28;20939;-71
2021/03/28 03:45:59;;;;;;;6.60;3.93;;;10.00;79.10;;;;;;5073611;28;20754;-70
2021/03/28 03:48:48;;;;;;;5.90;3.53;;;10.00;79.80;;;;;;5072368;28;20400;-71
2021/03/28 03:51:34;;;;;;;6.60;3.70;;;10.00;80.40;;;;;;5072426;28;20473;-70
2021/03/28 03:54:12;;;;;;;7.00;4.10;;;10.00;80.60;;;;;;5073481;28;20388;-70
2021/03/28 03:56:46;;;;;;;7.40;4.10;;;10.00;80.30;;;;;;5073398;28;20569;-70
2021/03/28 03:59:51;;;;;;;3.90;3.50;;;10.00;80.00;;;;;;5072489;28;20410;-71
2021/03/28 04:02:23;;;;;;;7.87;3.43;;;10.00;80.10;;;;;;5072337;28;20509;-71
2021/03/28 04:05:11;;;;;;;4.60;4.00;;;10.10;80.40;;;;;;5072840;28;20506;-70
2021/03/28 04:07:46;;;;;;;8.10;3.60;;;10.10;80.70;;;;;;5073144;28;20396;-70
2021/03/28 04:10:31;;;;;;;6.63;3.43;;;10.10;80.30;;;;;;5070965;28;20466;-72
2021/03/28 04:13:15;;;;;;;4.67;2.80;;;10.10;80.30;;;;;;5072929;28;20888;-70
2021/03/28 04:16:18;;;;;;;4.30;3.03;;;10.20;80.30;;;;;;5073081;28;20428;-71
2021/03/28 04:19:28;;;;;;;7.67;3.13;;;10.20;80.30;;;;;;5072356;28;20474;-71
2021/03/28 04:22:30;;;;;;;5.00;3.37;;;10.20;80.00;;;;;;5067938;28;20432;-71
2021/03/28 04:25:12;;;;;;;5.30;3.40;;;10.10;80.70;;;;;;5071322;28;20475;-70
2021/03/28 04:28:05;;;;;;;3.73;3.07;;;10.10;80.50;;;;;;5072812;28;20418;-70
2021/03/28 04:30:55;;;;;;;6.00;3.10;;;10.10;80.60;;;;;;5071975;28;20503;-71
2021/03/28 04:33:46;;;;;;;4.87;3.10;;;10.10;80.40;;;;;;5071725;28;20424;-71
2021/03/28 04:36:16;;;;;;;7.60;3.20;;;10.20;80.90;;;;;;5071943;28;20468;-72
2021/03/28 04:39:09;;;;;;;6.00;3.70;;;10.20;80.70;;;;;;5072704;28;20407;-70
2021/03/28 04:41:43;;;;;;;4.53;3.40;;;10.10;80.50;;;;;;5071991;28;20512;-71
2021/03/28 04:44:12;;;;;;;6.13;3.10;;;10.10;80.50;;;;;;5072302;28;20400;-71
2021/03/28 04:47:12;;;;;;;4.60;3.27;;;10.10;80.80;;;;;;5072093;28;20428;-71
2021/03/28 04:49:50;;;;;;;3.87;3.10;;;10.10;82.20;;;;;;5072252;28;20484;-70
2021/03/28 04:52:49;;;;;;;6.23;2.97;;;10.10;81.10;;;;;;5071593;28;20416;-71
2021/03/28 04:55:33;;;;;;;4.17;2.80;;;10.10;80.90;;;;;;5071661;28;20423;-71
2021/03/28 04:58:29;;;;;;;4.20;3.60;;;10.10;80.50;;;;;;5072397;28;20425;-70
2021/03/28 05:01:10;;;;;;;6.60;3.90;;;10.10;80.50;;;;;;5072202;28;20416;-70
2021/03/28 05:04:07;;;;;;;5.33;3.63;;;10.10;80.40;;;;;;5071856;28;20389;-70
2021/03/28 05:07:04;;;;;;;4.77;3.23;;;10.00;80.20;;;;;;5071576;28;20420;-70
2021/03/28 05:09:51;;;;;;;8.80;4.10;;;10.10;80.40;;;;;;5071327;28;20459;-70
2021/03/28 05:12:42;;;;;;;8.17;4.20;;;10.10;80.40;;;;;;5071486;28;20396;-71
2021/03/28 05:15:48;;;;;;;5.10;3.10;;;9.90;81.70;;;;;;5071848;28;20419;-70
2021/03/28 05:18:32;;;;;;;5.77;2.80;;;10.00;80.40;;;;;;5071673;28;20403;-71
2021/03/28 05:21:26;;;;;;;7.10;4.03;;;9.80;81.80;;;;;;5072048;28;20411;-70
2021/03/28 05:24:31;;;;;;;6.77;3.07;;;9.80;82.60;;;;;;5072184;28;20392;-70
2021/03/28 05:27:16;;;;;;;5.73;3.70;;;9.80;82.80;;;;;;5070889;28;20542;-71
2021/03/28 05:30:04;;;;;;;4.10;3.50;;;9.90;82.90;;;;;;5071358;28;20480;-70
2021/03/28 05:32:32;;;;;;;3.13;2.93;;;10.00;81.60;;;;;;5071260;28;20914;-70
2021/03/28 05:35:29;;;;;;;5.20;3.97;;;10.00;81.00;;;;;;5071979;28;20466;-70
2021/03/28 05:38:14;;;;;;;5.37;3.10;;;10.10;81.00;;;;;;5072289;28;20448;-72
2021/03/28 05:41:43;;;;;;;5.23;4.07;;;10.10;80.70;;;;;;5071585;28;20407;-70
2021/03/28 05:44:27;;;;;;;5.13;3.20;;;10.10;80.90;;;;;;5029506;28;20427;-70
2021/03/28 05:47:02;;;;;;;4.90;2.90;;;10.20;81.20;;;;;;5062975;28;20435;-70
2021/03/28 05:49:52;;;;;;;6.40;3.90;;;10.20;81.20;;;;;;5070811;28;20846;-70
2021/03/28 05:52:36;;;;;;;3.30;3.00;;;10.20;81.30;;;;;;5050926;28;20420;-73
2021/03/28 05:55:20;;;;;;;3.90;3.40;;;10.30;81.60;;;;;;5052113;28;20413;-71
2021/03/28 05:58:10;;;;;;;5.90;3.40;;;10.30;80.60;;;;;;5072050;28;20436;-70
2021/03/28 06:01:00;;;;;;;4.30;2.93;;;10.40;81.40;;;;;;5070845;28;20465;-70
2021/03/28 06:04:12;;;;;;;4.57;3.20;;;10.40;81.00;;;;;;5074642;28;20392;-70
2021/03/28 06:06:57;;;;;;;3.13;2.73;;;10.40;80.90;;;;;;5074681;28;20424;-70
2021/03/28 06:09:22;;;;;;;3.20;2.90;;;10.40;81.40;;;;;;5073884;28;20506;-70
2021/03/28 06:12:15;;;;;;;3.47;2.77;;;10.40;81.40;;;;;;5075358;28;20412;-70
2021/03/28 06:14:51;;;;;;;5.53;3.07;;;10.50;81.20;;;;;;5075128;28;20168;-70
2021/03/28 06:17:32;;;;;;;5.40;2.73;;;10.50;81.60;;;;;;5074859;28;20390;-71
2021/03/28 06:20:25;;;;;;;3.10;2.87;;;10.50;81.60;;;;;;5075192;28;20450;-70
2021/03/28 06:23:03;;;;;;;7.00;4.40;;;10.50;81.70;;;;;;5055408;28;20384;-70
2021/03/28 06:25:47;;;;;;;3.60;3.20;;;10.50;82.30;;;;;;5054092;28;20411;-70
2021/03/28 06:28:31;;;;;;;8.23;3.63;;;10.50;82.60;;;;;;5055033;28;20414;-72
2021/03/28 06:31:24;;;;;;;5.47;3.20;;;10.50;82.30;;;;;;5064588;28;20509;-72
2021/03/28 06:33:56;;;;;;;7.93;3.50;;;10.60;82.40;;;;;;5074656;28;20458;-72
2021/03/28 06:36:36;;;;;;;3.50;2.90;;;10.60;82.40;;;;;;5074794;28;20418;-72
2021/03/28 06:39:17;;;;;;;3.33;2.77;;;10.50;82.40;;;;;;5074802;28;20757;-72
2021/03/28 06:42:05;;;;;;;3.40;2.90;;;10.50;82.50;;;;;;5108129;28;20841;-72
2021/03/28 06:44:40;;;;;;;3.13;2.90;;;10.50;83.00;;;;;;5074634;28;20751;-72
2021/03/28 06:47:30;;;;;;;6.20;3.20;;;10.70;82.80;;;;;;5074904;28;20486;-70
2021/03/28 06:50:22;;;;;;;6.27;3.27;;;10.60;82.70;;;;;;5075159;28;20535;-70
2021/03/28 06:53:17;;;;;;;2.97;2.70;;;10.60;82.70;;;;;;5065830;28;20423;-70
2021/03/28 06:55:46;;;;;;;4.80;3.10;;;10.40;83.10;;;;;;5075176;28;20507;-70
2021/03/28 06:58:37;;;;;;;6.10;3.33;;;10.40;83.60;;;;;;5074992;28;20722;-70
2021/03/28 07:01:19;;;;;;;4.53;2.60;;;10.50;83.70;;;;;;5074881;28;20506;-70
2021/03/28 07:04:20;;;;;;;4.20;3.27;;;10.40;84.00;;;;;;5074932;28;20396;-70
2021/03/28 07:07:04;;;;;;;3.73;3.40;;;10.30;83.80;;;;;;5074693;28;20932;-71
2021/03/28 07:09:47;;;;;;;7.60;3.87;;;10.30;84.30;;;;;;5074169;28;20478;-72
2021/03/28 07:12:22;;;;;;;3.70;3.17;;;10.30;84.70;;;;;;5074575;28;20399;-72
2021/03/28 07:15:06;;;;;;;7.33;3.30;;;10.30;85.00;;;;;;5074778;28;20379;-72
2021/03/28 07:17:44;;;;;;;4.47;3.50;;;10.40;85.40;;;;;;5072459;28;20514;-72
2021/03/28 07:20:41;;;;;;;4.10;3.43;;;10.40;85.30;;;;;;5074336;28;20461;-73
2021/03/28 07:23:16;;;;;;;4.13;3.00;;;10.40;84.90;;;;;;5078534;28;20763;-71
2021/03/28 07:25:44;;;;;;;4.90;2.97;;;10.40;85.30;;;;;;5075496;28;20424;-70
2021/03/28 07:28:29;;;;;;;6.03;3.30;;;10.40;85.40;;;;;;5073548;28;20927;-70
2021/03/28 07:31:06;;;;;;;3.30;3.00;;;10.40;85.50;;;;;;5074299;28;20536;-70
2021/03/28 07:33:47;;;;;;;7.30;3.47;;;10.50;85.50;;;;;;5072120;28;20765;-71
2021/03/28 07:36:21;;;;;;;3.53;3.20;;;10.40;84.80;;;;;;5073207;28;20797;-68
2021/03/28 07:39:20;;;;;;;3.40;3.20;;;10.30;85.80;;;;;;5073007;28;20416;-70
2021/03/28 07:42:30;;;;;;;3.43;3.13;;;10.40;85.80;;;;;;5071590;28;20420;-70
2021/03/28 07:44:59;;;;;;;4.20;3.50;;;10.50;85.50;;;;;;5068364;28;20478;-70
2021/03/28 07:47:33;;;;;;;9.10;4.50;;;10.60;85.60;;;;;;5073037;28;20888;-71
2021/03/28 07:50:35;;;;;;;4.43;3.80;;;10.70;85.40;;;;;;5072346;28;20456;-68
2021/03/28 07:53:19;;;;;;;5.00;4.60;;;10.80;85.00;;;;;;5074432;28;20417;-68
2021/03/28 07:56:15;;;;;;;4.60;4.20;;;10.90;84.30;;;;;;5079065;28;20435;-68
2021/03/28 07:59:08;;;;;;;3.90;3.57;;;11.00;84.40;;;;;;5093250;28;20503;-70
2021/03/28 08:01:58;;;;;;;5.10;2.40;;;11.10;84.10;;;;;;5089221;28;20415;-70
2021/03/28 08:04:41;;;;;;;3.60;2.83;;;11.10;83.60;;;;;;5070052;28;20414;-72
2021/03/28 08:07:32;;;;;;;4.40;3.63;;;11.20;83.30;;;;;;5073440;28;20397;-70
2021/03/28 08:10:22;;;;;;;3.20;2.90;;;11.30;82.50;;;;;;5074136;28;20500;-68
2021/03/28 08:12:50;;;;;;;5.83;3.30;;;11.30;82.40;;;;;;5092397;28;20415;-68
2021/03/28 08:15:52;;;;;;;3.67;3.33;;;11.30;82.10;;;;;;5093064;28;20438;-68
2021/03/28 08:18:51;;;;;;;4.33;3.93;;;11.40;82.00;;;;;;5050684;28;20438;-68
2021/03/28 08:21:58;;;;;;;2.60;2.40;;;11.40;82.10;;;;;;5081291;28;20425;-68
2021/03/28 08:24:49;;;;;;;3.40;2.50;;;11.40;81.20;;;;;;5071131;28;20390;-71
2021/03/28 08:27:29;;;;;;;5.37;2.60;;;11.50;81.90;;;;;;5072864;28;20407;-70
2021/03/28 08:30:08;;;;;;;3.80;2.47;;;11.50;81.40;;;;;;5078772;28;20472;-70
2021/03/28 08:32:53;;;;;;;3.03;2.67;;;11.50;81.20;;;;;;5092360;28;20414;-70
2021/03/28 08:35:51;;;;;;;7.63;2.80;;;11.60;81.40;;;;;;5080285;28;20805;-69
2021/03/28 08:38:56;;;;;;;2.80;2.40;;;11.70;80.90;;;;;;5073291;28;20434;-71
2021/03/28 08:41:59;;;;;;;5.13;4.00;;;11.80;80.50;;;;;;5072647;28;20388;-68
2021/03/28 08:44:37;;;;;;;3.70;2.80;;;11.90;81.40;;;;;;5064621;28;20740;-71
2021/03/28 08:47:30;;;;;;;4.83;2.87;;;12.00;88.30;;;;;;5068355;28;20445;-68
2021/03/28 08:50:15;;;;;;;2.93;2.50;;;12.10;87.10;;;;;;5065680;28;20513;-68
2021/03/28 08:52:43;;;;;;;3.73;2.50;;;12.30;86.80;;;;;;5071016;28;20414;-68
2021/03/28 08:55:34;;;;;;;2.93;2.60;;;12.70;91.00;;;;;;5071505;28;20413;-68
2021/03/28 08:58:18;;;;;;;5.80;2.87;;;12.90;85.80;;;;;;5071346;28;20496;-69
2021/03/28 09:01:21;;;;;;;6.87;2.70;;;13.10;82.50;;;;;;5068166;28;20399;-69
2021/03/28 09:04:01;;;;;;;3.07;2.27;;;13.20;81.70;;;;;;5069465;28;20425;-68
2021/03/28 09:06:47;;;;;;;3.73;2.60;;;13.20;82.20;;;;;;5070279;28;20416;-69
2021/03/28 09:09:40;;;;;;;5.43;2.77;;;13.20;81.00;;;;;;5068725;28;20436;-69
2021/03/28 09:12:35;;;;;;;6.23;2.87;;;13.50;81.20;;;;;;5067876;28;20423;-69
2021/03/28 09:15:38;;;;;;;4.03;3.00;;;13.50;80.60;;;;;;5069853;28;20440;-69
2021/03/28 09:18:27;;;;;;;5.30;2.63;;;13.60;81.00;;;;;;5067392;28;20479;-69
2021/03/28 09:21:29;;;;;;;4.47;2.63;;;13.80;81.30;;;;;;5071806;28;20470;-69
2021/03/28 09:24:07;;;;;;;3.20;2.80;;;13.90;80.80;;;;;;5065957;28;20396;-69
2021/03/28 09:26:48;;;;;;;4.47;2.80;;;14.00;79.00;;;;;;5071812;28;20450;-69
2021/03/28 09:29:51;;;;;;;6.33;2.90;;;14.00;77.90;;;;;;5071977;28;20472;-69
2021/03/28 09:32:34;;;;;;;3.97;2.80;;;14.00;78.80;;;;;;5072447;28;20420;-69
2021/03/28 09:35:07;;;;;;;2.80;2.57;;;14.30;78.90;;;;;;5085998;28;20418;-69
2021/03/28 09:38:03;;;;;;;5.37;3.00;;;14.60;79.20;;;;;;5094501;28;20408;-69
2021/03/28 09:40:47;;;;;;;4.47;2.80;;;14.90;77.60;;;;;;5094918;28;20401;-69
2021/03/28 09:43:21;;;;;;;6.20;3.20;;;15.20;76.90;;;;;;5096404;28;20890;-69
2021/03/28 09:46:12;;;;;;;5.93;3.03;;;15.50;74.30;;;;;;5093509;28;20411;-69
2021/03/28 09:49:20;;;;;;;2.97;2.60;;;15.70;72.50;;;;;;5070737;28;20448;-69
2021/03/28 09:52:06;;;;;;;3.40;3.10;;;15.80;73.30;;;;;;5063331;28;20679;-69
2021/03/28 09:54:58;;;;;;;5.13;2.90;;;16.00;72.00;;;;;;5074297;28;20454;-70
2021/03/28 09:57:51;;;;;;;5.23;2.83;;;16.10;72.00;;;;;;5074957;28;20414;-70
2021/03/28 10:00:59;;;;;;;5.50;3.00;;;16.50;70.90;;;;;;5074804;28;20421;-70
2021/03/28 10:03:31;;;;;;;4.80;2.90;;;16.70;68.70;;;;;;5067491;28;20432;-69
2021/03/28 10:06:10;;;;;;;3.47;2.90;;;16.60;67.10;;;;;;5076129;28;20491;-69
2021/03/28 10:09:01;;;;;;;5.50;3.10;;;16.40;68.10;;;;;;5074854;28;20402;-69
2021/03/28 10:11:47;;;;;;;3.73;3.43;;;16.30;67.60;;;;;;5069748;28;20418;-69
2021/03/28 10:14:18;;;;;;;5.17;3.43;;;16.30;69.80;;;;;;5075169;28;20747;-69
2021/03/28 10:16:44;;;;;;;8.57;4.57;;;16.00;66.90;;;;;;5074526;28;20421;-68
2021/03/28 10:19:21;;;;;;;6.50;3.40;;;15.90;68.00;;;;;;5075838;28;20421;-68
2021/03/28 10:22:05;;;;;;;4.10;3.40;;;15.90;68.50;;;;;;5074801;28;20858;-68
2021/03/28 10:24:56;;;;;;;3.83;3.13;;;15.80;69.00;;;;;;5074971;28;20405;-69
2021/03/28 10:27:51;;;;;;;4.37;3.37;;;16.10;68.90;;;;;;5054389;28;20754;-68
2021/03/28 10:30:30;;;;;;;4.73;3.23;;;16.20;66.80;;;;;;5050797;28;20481;-68
2021/03/28 10:33:06;;;;;;;4.80;3.30;;;16.10;67.40;;;;;;5055574;28;20871;-70
2021/03/28 10:35:31;;;;;;;4.10;3.30;;;16.00;66.20;;;;;;5054885;28;20409;-71
2021/03/28 10:38:03;;;;;;;6.33;3.20;;;16.10;67.50;;;;;;5072959;28;20433;-70
2021/03/28 10:40:42;;;;;;;3.50;3.00;;;16.00;67.80;;;;;;5074918;28;20174;-72
2021/03/28 10:43:31;;;;;;;3.17;2.80;;;16.10;67.70;;;;;;5075231;28;20424;-68
2021/03/28 10:46:06;;;;;;;4.80;3.27;;;16.30;68.20;;;;;;5074551;28;20429;-72
2021/03/28 10:49:01;;;;;;;5.63;3.60;;;16.60;69.30;;;;;;5073982;28;20433;-71
2021/03/28 10:52:04;;;;;;;24.13;18.73;;;16.80;65.40;;;;;;5065589;28;20453;-70
2021/03/28 10:55:04;;;;;;;42.97;31.77;;;16.80;66.40;;;;;;5074673;28;20395;-71
2021/03/28 10:57:39;;;;;;;20.93;13.73;;;16.90;65.40;;;;;;5070809;28;20419;-70
2021/03/28 11:00:32;;;;;;;2.77;2.57;;;17.20;61.20;;;;;;5074563;28;20452;-70
2021/03/28 11:03:27;;;;;;;3.10;2.80;;;17.20;59.30;;;;;;5074845;28;20515;-69
2021/03/28 11:06:23;;;;;;;3.60;2.90;;;17.30;59.40;;;;;;5069176;28;20447;-70
2021/03/28 11:09:14;;;;;;;3.87;3.00;;;17.30;57.30;;;;;;5054181;28;20393;-70
2021/03/28 11:12:00;;;;;;;5.03;3.10;;;17.30;55.60;;;;;;5055106;28;20439;-70
2021/03/28 11:14:29;;;;;;;3.77;3.00;;;17.30;55.60;;;;;;5066226;28;20403;-70
2021/03/28 11:17:15;;;;;;;3.20;3.00;;;17.30;56.90;;;;;;5060599;28;20439;-69
2021/03/28 11:20:06;;;;;;;2.60;2.47;;;17.30;55.60;;;;;;5073520;28;20818;-73
2021/03/28 11:22:44;;;;;;;3.93;3.20;;;17.30;55.50;;;;;;5073420;28;20911;-71
2021/03/28 11:25:19;;;;;;;3.57;3.27;;;17.30;55.60;;;;;;5073330;28;20509;-70
2021/03/28 11:27:53;;;;;;;3.10;2.67;;;17.40;56.10;;;;;;5071730;28;20423;-70
2021/03/28 11:30:45;;;;;;;3.83;3.20;;;17.50;56.00;;;;;;5073342;28;20512;-70
2021/03/28 11:33:55;;;;;;;3.03;2.70;;;17.50;57.10;;;;;;5073085;28;20854;-70
2021/03/28 11:36:29;;;;;;;6.00;2.80;;;17.70;55.30;;;;;;5051945;28;20494;-70
2021/03/28 11:39:13;;;;;;;4.40;3.33;;;17.70;54.90;;;;;;5053039;28;20404;-70
2021/03/28 11:41:45;;;;;;;4.97;3.80;;;17.70;56.60;;;;;;5051688;28;20408;-70
2021/03/28 11:44:41;;;;;;;6.00;3.77;;;17.60;54.20;;;;;;5053719;28;20425;-70
2021/03/28 11:47:28;;;;;;;4.63;3.07;;;17.60;54.70;;;;;;5071426;28;20426;-70
2021/03/28 11:50:07;;;;;;;3.30;3.00;;;17.60;55.00;;;;;;5073399;28;20439;-70
2021/03/28 11:53:07;;;;;;;2.93;2.73;;;17.70;55.50;;;;;;5073659;28;20402;-71
2021/03/28 11:55:43;;;;;;;5.80;3.43;;;17.80;55.90;;;;;;5072855;28;20867;-71
2021/03/28 11:58:14;;;;;;;6.27;3.30;;;17.80;55.70;;;;;;5073482;28;20918;-73
2021/03/28 12:00:43;;;;;;;4.10;3.07;;;17.70;55.50;;;;;;5071733;28;20450;-72
2021/03/28 12:03:21;;;;;;;5.50;3.10;;;17.60;56.00;;;;;;5072713;28;20419;-72
2021/03/28 12:06:28;;;;;;;3.20;2.90;;;17.50;57.10;;;;;;5074715;28;20513;-70
2021/03/28 12:09:00;;;;;;;71.50;44.80;;;17.30;56.60;;;;;;5069730;28;20450;-71
2021/03/28 12:11:50;;;;;;;6.37;5.20;;;17.20;56.30;;;;;;5072750;28;20767;-71
2021/03/28 12:14:27;;;;;;;4.00;3.23;;;17.00;56.30;;;;;;5064756;28;20502;-71
2021/03/28 12:17:11;;;;;;;3.97;3.40;;;17.00;56.50;;;;;;5073597;28;20923;-71
2021/03/28 12:19:44;;;;;;;3.90;3.60;;;16.90;56.50;;;;;;5070666;28;20454;-72
2021/03/28 12:22:43;;;;;;;3.33;3.13;;;16.90;56.90;;;;;;5071839;28;20419;-72
2021/03/28 12:25:12;;;;;;;3.53;3.23;;;16.90;56.50;;;;;;5068264;28;20421;-71
2021/03/28 12:27:55;;;;;;;4.90;2.97;;;16.80;56.70;;;;;;5091707;28;20808;-71
2021/03/28 12:30:40;;;;;;;3.93;3.20;;;16.70;57.00;;;;;;5072065;28;20513;-71
2021/03/28 12:33:09;;;;;;;5.03;3.10;;;16.70;56.70;;;;;;5072206;28;20825;-71
2021/03/28 12:35:56;;;;;;;4.37;3.30;;;16.60;57.40;;;;;;5072299;28;20425;-71
2021/03/28 12:38:45;;;;;;;4.40;2.90;;;16.60;58.10;;;;;;5070971;28;20424;-70
2021/03/28 12:41:13;;;;;;;3.73;3.40;;;16.70;57.00;;;;;;5071949;28;20453;-71
2021/03/28 12:43:58;;;;;;;3.03;2.77;;;16.60;56.70;;;;;;5068556;28;20426;-72
2021/03/28 12:46:26;;;;;;;4.27;3.30;;;16.60;56.90;;;;;;5073032;28;20463;-71
2021/03/28 12:49:10;;;;;;;5.07;3.43;;;16.60;57.10;;;;;;5071800;28;20430;-71
2021/03/28 12:51:41;;;;;;;4.07;3.67;;;16.60;57.80;;;;;;5072663;28;20497;-72
2021/03/28 12:54:28;;;;;;;3.97;3.60;;;16.60;57.70;;;;;;5071468;28;20423;-71
2021/03/28 12:57:01;;;;;;;6.10;3.70;;;16.60;57.20;;;;;;5062044;28;20469;-71
2021/03/28 12:59:39;;;;;;;5.63;4.20;;;16.50;57.70;;;;;;5071976;28;20413;-71
2021/03/28 13:02:21;;;;;;;100.20;71.53;;;16.50;57.40;;;;;;5071464;28;20513;-71
2021/03/28 13:05:25;;;;;;;12.17;8.07;;;16.50;58.40;;;;;;5071400;28;20510;-71
2021/03/28 13:07:58;;;;;;;4.27;3.30;;;16.50;58.00;;;;;;5069901;28;20440;-71
2021/03/28 13:10:31;;;;;;;4.43;4.03;;;16.40;57.00;;;;;;5072259;28;20801;-71
2021/03/28 13:13:14;;;;;;;5.90;3.80;;;16.40;58.00;;;;;;5070316;28;21294;-71
2021/03/28 13:15:49;;;;;;;3.80;3.40;;;16.30;58.20;;;;;;5071542;28;20503;-71
2021/03/28 13:18:31;;;;;;;4.17;3.73;;;16.20;58.10;;;;;;5070957;28;20935;-71
2021/03/28 13:20:58;;;;;;;3.53;3.20;;;16.20;58.20;;;;;;5071040;28;20437;-71
2021/03/28 13:23:53;;;;;;;4.10;3.60;;;16.20;58.10;;;;;;5071841;28;20448;-71
2021/03/28 13:26:42;;;;;;;4.53;3.50;;;16.10;58.10;;;;;;5072362;28;20398;-71
2021/03/28 13:29:13;;;;;;;7.13;3.83;;;16.00;58.10;;;;;;5071293;28;20461;-71
2021/03/28 13:31:57;;;;;;;4.20;3.80;;;16.00;58.70;;;;;;5071863;28;20412;-71
2021/03/28 13:34:25;;;;;;;6.43;3.70;;;16.00;58.70;;;;;;5071837;28;20474;-70
2021/03/28 13:37:29;;;;;;;4.83;3.90;;;15.90;57.30;;;;;;5070375;28;20421;-70
2021/03/28 13:40:02;;;;;;;4.17;3.77;;;15.70;57.30;;;;;;5070765;28;20420;-72
2021/03/28 13:42:35;;;;;;;4.07;3.60;;;15.80;59.30;;;;;;5071955;28;20852;-69
2021/03/28 13:45:08;;;;;;;9.23;3.60;;;15.70;59.10;;;;;;5071101;28;20446;-70
2021/03/28 13:47:45;;;;;;;5.10;3.50;;;15.70;58.60;;;;;;5071798;28;20401;-70
2021/03/28 13:50:26;;;;;;;3.90;3.60;;;15.70;59.10;;;;;;5051601;28;20436;-70
2021/03/28 13:52:54;;;;;;;4.80;3.80;;;15.70;59.30;;;;;;5050710;28;20453;-70
2021/03/28 13:55:53;;;;;;;5.47;3.97;;;15.70;59.50;;;;;;5051943;28;20413;-70
2021/03/28 13:58:22;;;;;;;6.57;3.87;;;15.70;58.90;;;;;;5051748;28;20438;-70
2021/03/28 14:01:33;;;;;;;23.87;17.07;;;15.70;58.70;;;;;;5069900;28;20438;-71
2021/03/28 14:04:15;;;;;;;8.93;6.93;;;15.80;58.70;;;;;;5063007;28;20433;-70
2021/03/28 14:06:42;;;;;;;3.73;3.37;;;15.80;58.40;;;;;;5071605;28;20385;-70
2021/03/28 14:09:13;;;;;;;4.90;3.70;;;15.90;59.30;;;;;;5069773;28;20457;-70
2021/03/28 14:11:54;;;;;;;3.93;3.60;;;15.80;59.00;;;;;;5071505;28;20416;-70
2021/03/28 14:14:34;;;;;;;5.80;3.60;;;15.80;57.90;;;;;;5072120;28;20401;-70
2021/03/28 14:17:32;;;;;;;6.07;3.80;;;15.80;58.80;;;;;;5069399;28;20420;-71
2021/03/28 14:20:15;;;;;;;4.77;4.30;;;15.70;58.30;;;;;;5056613;28;20433;-71
2021/03/28 14:22:50;;;;;;;3.60;3.30;;;15.80;59.30;;;;;;5072780;28;20408;-70